CLO weather

Alfonso Bonilla Aragon International Airport
Cali, Valle del Cauca Department, Colombia

Public forecast

Using degrees Celsius for public forecast. Weather courtesy of forecast.io.

Current aviation weather report (METAR) for Alfonso Bonilla Aragon International Airport

Retrieved 2020/07/13 18:00 UTC (16 minutes ago):

SKCL 131800Z VRB03KT 9999 FEW020 SCT120 28/20 A3000 NOSIG

Aviation forecast (TAF) for Alfonso Bonilla Aragon International Airport

Retrieved 2020/07/13 18:35 UTC (0 seconds ago):

TAF SKCL 131630Z 1318/1418 35008KT 9999 SCT020 SCT120 TEMPO 1320/1323 8000 VCSH SCT018TCU PROB30 TEMPO 1323/1401 7000 DZRA SCT015TCU BECMG 1401/1403 VRB02KT FEW017 BKN100 TEMPO 1411/1414 8000 VCFG BKN030 TX32/1319Z TN19/1410Z